sensor_id;sensor_type;location;lat;lon;timestamp;P1;durP1;ratioP1;P2;durP2;ratioP2
22606;SDS011;11470;20.968;105.834;2023-03-01T00:01:03;97.53;;;53.72;;
22606;SDS011;11470;20.968;105.834;2023-03-01T00:06:10;101.20;;;53.70;;
22606;SDS011;11470;20.968;105.834;2023-03-01T00:11:18;92.88;;;47.35;;
22606;SDS011;11470;20.968;105.834;2023-03-01T00:16:30;93.32;;;49.55;;
22606;SDS011;11470;20.968;105.834;2023-03-01T00:21:39;81.32;;;47.53;;
22606;SDS011;11470;20.968;105.834;2023-03-01T00:26:45;90.75;;;52.13;;
22606;SDS011;11470;20.968;105.834;2023-03-01T00:31:52;91.13;;;50.60;;
22606;SDS011;11470;20.968;105.834;2023-03-01T00:36:58;93.03;;;49.45;;
22606;SDS011;11470;20.968;105.834;2023-03-01T00:42:10;79.22;;;45.03;;
22606;SDS011;11470;20.968;105.834;2023-03-01T00:52:22;87.85;;;46.65;;
22606;SDS011;11470;20.968;105.834;2023-03-01T01:02:33;83.60;;;44.78;;
22606;SDS011;11470;20.968;105.834;2023-03-01T01:07:40;81.80;;;44.33;;
22606;SDS011;11470;20.968;105.834;2023-03-01T01:12:47;85.60;;;45.30;;
22606;SDS011;11470;20.968;105.834;2023-03-01T01:17:53;84.22;;;45.25;;
22606;SDS011;11470;20.968;105.834;2023-03-01T01:22:59;87.18;;;47.72;;
22606;SDS011;11470;20.968;105.834;2023-03-01T01:28:05;85.50;;;42.38;;
22606;SDS011;11470;20.968;105.834;2023-03-01T01:38:18;82.27;;;42.87;;
22606;SDS011;11470;20.968;105.834;2023-03-01T01:43:28;97.15;;;49.33;;
22606;SDS011;11470;20.968;105.834;2023-03-01T01:48:44;103.47;;;49.55;;
22606;SDS011;11470;20.968;105.834;2023-03-01T01:54:37;95.93;;;48.95;;
22606;SDS011;11470;20.968;105.834;2023-03-01T01:59:43;120.95;;;62.17;;
22606;SDS011;11470;20.968;105.834;2023-03-01T02:04:53;132.23;;;69.95;;
22606;SDS011;11470;20.968;105.834;2023-03-01T02:10:08;115.22;;;58.72;;
22606;SDS011;11470;20.968;105.834;2023-03-01T02:15:17;129.90;;;68.68;;
22606;SDS011;11470;20.968;105.834;2023-03-01T02:36:14;135.00;;;66.43;;
22606;SDS011;11470;20.968;105.834;2023-03-01T02:41:24;131.43;;;63.83;;
22606;SDS011;11470;20.968;105.834;2023-03-01T02:46:41;129.65;;;58.85;;
22606;SDS011;11470;20.968;105.834;2023-03-01T02:57:22;131.27;;;59.42;;
22606;SDS011;11470;20.968;105.834;2023-03-01T03:02:31;134.48;;;69.22;;
22606;SDS011;11470;20.968;105.834;2023-03-01T03:07:50;134.52;;;66.68;;
22606;SDS011;11470;20.968;105.834;2023-03-01T03:13:01;132.23;;;66.13;;
22606;SDS011;11470;20.968;105.834;2023-03-01T03:18:13;136.52;;;71.03;;
22606;SDS011;11470;20.968;105.834;2023-03-01T03:23:24;128.40;;;64.88;;
22606;SDS011;11470;20.968;105.834;2023-03-01T03:33:37;131.83;;;68.27;;
22606;SDS011;11470;20.968;105.834;2023-03-01T03:43:50;124.20;;;54.10;;
22606;SDS011;11470;20.968;105.834;2023-03-01T03:48:57;138.13;;;69.03;;
22606;SDS011;11470;20.968;105.834;2023-03-01T03:54:10;127.00;;;53.83;;
22606;SDS011;11470;20.968;105.834;2023-03-01T03:59:31;131.75;;;69.63;;
22606;SDS011;11470;20.968;105.834;2023-03-01T04:04:38;137.55;;;72.80;;
22606;SDS011;11470;20.968;105.834;2023-03-01T04:09:44;142.23;;;70.88;;
22606;SDS011;11470;20.968;105.834;2023-03-01T04:14:50;109.93;;;58.30;;
22606;SDS011;11470;20.968;105.834;2023-03-01T04:25:10;117.75;;;50.50;;
22606;SDS011;11470;20.968;105.834;2023-03-01T04:30:18;132.63;;;65.72;;
22606;SDS011;11470;20.968;105.834;2023-03-01T04:35:31;133.07;;;66.95;;
22606;SDS011;11470;20.968;105.834;2023-03-01T04:40:39;123.28;;;61.95;;
22606;SDS011;11470;20.968;105.834;2023-03-01T04:45:47;135.05;;;65.82;;
22606;SDS011;11470;20.968;105.834;2023-03-01T04:50:55;132.45;;;66.20;;
22606;SDS011;11470;20.968;105.834;2023-03-01T04:56:02;126.38;;;65.10;;
22606;SDS011;11470;20.968;105.834;2023-03-01T05:01:19;126.93;;;62.70;;
22606;SDS011;11470;20.968;105.834;2023-03-01T05:06:26;127.03;;;66.43;;
22606;SDS011;11470;20.968;105.834;2023-03-01T05:11:32;95.63;;;43.92;;
22606;SDS011;11470;20.968;105.834;2023-03-01T05:16:40;110.07;;;48.22;;
22606;SDS011;11470;20.968;105.834;2023-03-01T05:21:46;137.20;;;65.32;;
22606;SDS011;11470;20.968;105.834;2023-03-01T05:27:09;119.93;;;62.30;;
22606;SDS011;11470;20.968;105.834;2023-03-01T05:32:17;113.97;;;56.47;;
22606;SDS011;11470;20.968;105.834;2023-03-01T05:37:23;129.02;;;65.38;;
22606;SDS011;11470;20.968;105.834;2023-03-01T05:47:36;157.70;;;68.70;;
22606;SDS011;11470;20.968;105.834;2023-03-01T05:52:51;216.32;;;89.25;;
22606;SDS011;11470;20.968;105.834;2023-03-01T05:58:21;167.85;;;76.70;;
22606;SDS011;11470;20.968;105.834;2023-03-01T06:03:28;174.88;;;76.28;;
22606;SDS011;11470;20.968;105.834;2023-03-01T06:08:38;169.52;;;77.50;;
22606;SDS011;11470;20.968;105.834;2023-03-01T06:13:44;132.25;;;52.35;;
22606;SDS011;11470;20.968;105.834;2023-03-01T06:18:51;151.82;;;70.28;;
22606;SDS011;11470;20.968;105.834;2023-03-01T06:29:03;136.75;;;65.68;;
22606;SDS011;11470;20.968;105.834;2023-03-01T06:34:09;130.65;;;62.55;;
22606;SDS011;11470;20.968;105.834;2023-03-01T06:39:32;138.63;;;68.80;;
22606;SDS011;11470;20.968;105.834;2023-03-01T06:44:39;154.82;;;70.78;;
22606;SDS011;11470;20.968;105.834;2023-03-01T06:49:45;120.20;;;59.58;;
22606;SDS011;11470;20.968;105.834;2023-03-01T06:59:59;147.65;;;72.72;;
22606;SDS011;11470;20.968;105.834;2023-03-01T07:05:06;130.02;;;66.25;;
22606;SDS011;11470;20.968;105.834;2023-03-01T07:10:12;129.20;;;68.38;;
22606;SDS011;11470;20.968;105.834;2023-03-01T07:15:22;129.20;;;65.00;;
22606;SDS011;11470;20.968;105.834;2023-03-01T07:20:29;143.93;;;72.38;;
22606;SDS011;11470;20.968;105.834;2023-03-01T07:30:41;135.65;;;70.93;;
22606;SDS011;11470;20.968;105.834;2023-03-01T07:35:55;148.48;;;76.72;;
22606;SDS011;11470;20.968;105.834;2023-03-01T07:46:11;118.70;;;65.72;;
22606;SDS011;11470;20.968;105.834;2023-03-01T07:51:17;111.72;;;63.40;;
22606;SDS011;11470;20.968;105.834;2023-03-01T07:56:27;102.20;;;57.58;;
22606;SDS011;11470;20.968;105.834;2023-03-01T08:01:33;96.63;;;52.15;;
22606;SDS011;11470;20.968;105.834;2023-03-01T08:06:39;101.82;;;54.90;;
22606;SDS011;11470;20.968;105.834;2023-03-01T08:11:48;110.97;;;61.13;;
22606;SDS011;11470;20.968;105.834;2023-03-01T08:16:55;88.95;;;49.05;;
22606;SDS011;11470;20.968;105.834;2023-03-01T08:22:02;89.93;;;46.55;;
22606;SDS011;11470;20.968;105.834;2023-03-01T08:27:09;75.57;;;43.45;;
22606;SDS011;11470;20.968;105.834;2023-03-01T08:32:16;104.68;;;56.95;;
22606;SDS011;11470;20.968;105.834;2023-03-01T08:37:23;65.20;;;38.70;;
22606;SDS011;11470;20.968;105.834;2023-03-01T08:42:30;97.30;;;53.30;;
22606;SDS011;11470;20.968;105.834;2023-03-01T08:47:38;84.30;;;44.33;;
22606;SDS011;11470;20.968;105.834;2023-03-01T08:52:45;83.97;;;49.67;;
22606;SDS011;11470;20.968;105.834;2023-03-01T08:57:52;87.45;;;48.28;;
22606;SDS011;11470;20.968;105.834;2023-03-01T09:02:58;94.28;;;52.20;;
22606;SDS011;11470;20.968;105.834;2023-03-01T09:13:13;69.68;;;42.15;;
22606;SDS011;11470;20.968;105.834;2023-03-01T09:18:19;62.25;;;36.53;;
22606;SDS011;11470;20.968;105.834;2023-03-01T09:23:25;86.13;;;49.63;;
22606;SDS011;11470;20.968;105.834;2023-03-01T09:28:32;59.55;;;35.33;;
22606;SDS011;11470;20.968;105.834;2023-03-01T09:33:39;66.75;;;39.33;;
22606;SDS011;11470;20.968;105.834;2023-03-01T09:38:47;92.45;;;46.85;;
22606;SDS011;11470;20.968;105.834;2023-03-01T09:43:55;85.55;;;46.80;;
22606;SDS011;11470;20.968;105.834;2023-03-01T09:49:09;78.45;;;44.45;;
22606;SDS011;11470;20.968;105.834;2023-03-01T09:54:24;72.47;;;39.17;;
22606;SDS011;11470;20.968;105.834;2023-03-01T10:10:29;71.35;;;39.33;;
22606;SDS011;11470;20.968;105.834;2023-03-01T10:15:55;83.38;;;45.05;;
22606;SDS011;11470;20.968;105.834;2023-03-01T10:21:11;69.77;;;41.33;;
22606;SDS011;11470;20.968;105.834;2023-03-01T10:26:40;86.60;;;44.90;;
22606;SDS011;11470;20.968;105.834;2023-03-01T10:32:00;83.63;;;45.00;;
22606;SDS011;11470;20.968;105.834;2023-03-01T10:37:15;77.65;;;42.10;;
22606;SDS011;11470;20.968;105.834;2023-03-01T10:42:28;77.07;;;44.65;;
22606;SDS011;11470;20.968;105.834;2023-03-01T10:47:37;75.22;;;45.13;;
22606;SDS011;11470;20.968;105.834;2023-03-01T10:52:43;80.63;;;37.72;;
22606;SDS011;11470;20.968;105.834;2023-03-01T10:58:12;75.82;;;42.05;;
22606;SDS011;11470;20.968;105.834;2023-03-01T11:03:28;85.35;;;45.53;;
22606;SDS011;11470;20.968;105.834;2023-03-01T11:08:46;83.47;;;42.43;;
22606;SDS011;11470;20.968;105.834;2023-03-01T11:13:57;71.30;;;35.75;;
22606;SDS011;11470;20.968;105.834;2023-03-01T11:24:17;67.07;;;40.55;;
22606;SDS011;11470;20.968;105.834;2023-03-01T13:36:45;127.32;;;74.70;;
22606;SDS011;11470;20.968;105.834;2023-03-01T13:41:55;116.45;;;63.55;;
22606;SDS011;11470;20.968;105.834;2023-03-01T13:52:38;151.63;;;82.53;;
22606;SDS011;11470;20.968;105.834;2023-03-01T13:58:25;172.95;;;99.70;;
22606;SDS011;11470;20.968;105.834;2023-03-01T14:03:42;166.50;;;97.32;;
22606;SDS011;11470;20.968;105.834;2023-03-01T14:09:00;140.38;;;75.65;;
22606;SDS011;11470;20.968;105.834;2023-03-01T14:14:29;133.43;;;74.25;;
22606;SDS011;11470;20.968;105.834;2023-03-01T14:19:55;144.52;;;78.93;;
22606;SDS011;11470;20.968;105.834;2023-03-01T14:25:20;170.35;;;91.43;;
22606;SDS011;11470;20.968;105.834;2023-03-01T14:30:41;180.52;;;97.28;;
22606;SDS011;11470;20.968;105.834;2023-03-01T14:35:59;130.38;;;74.80;;
22606;SDS011;11470;20.968;105.834;2023-03-01T14:41:22;133.23;;;71.63;;
22606;SDS011;11470;20.968;105.834;2023-03-01T14:46:35;133.40;;;73.30;;
22606;SDS011;11470;20.968;105.834;2023-03-01T14:51:58;124.70;;;68.97;;
22606;SDS011;11470;20.968;105.834;2023-03-01T14:57:29;142.38;;;79.50;;
22606;SDS011;11470;20.968;105.834;2023-03-01T15:02:36;165.35;;;95.82;;
22606;SDS011;11470;20.968;105.834;2023-03-01T15:07:44;125.25;;;70.63;;
22606;SDS011;11470;20.968;105.834;2023-03-01T15:12:54;126.63;;;70.72;;
22606;SDS011;11470;20.968;105.834;2023-03-01T15:18:03;155.75;;;86.63;;
22606;SDS011;11470;20.968;105.834;2023-03-01T15:23:20;139.30;;;79.82;;
22606;SDS011;11470;20.968;105.834;2023-03-01T15:28:33;167.50;;;97.10;;
22606;SDS011;11470;20.968;105.834;2023-03-01T15:34:08;141.35;;;78.72;;
22606;SDS011;11470;20.968;105.834;2023-03-01T15:39:42;193.83;;;105.67;;
22606;SDS011;11470;20.968;105.834;2023-03-01T15:45:19;186.98;;;102.28;;
22606;SDS011;11470;20.968;105.834;2023-03-01T15:50:29;165.27;;;91.03;;
22606;SDS011;11470;20.968;105.834;2023-03-01T15:55:40;170.50;;;94.80;;
22606;SDS011;11470;20.968;105.834;2023-03-01T16:00:48;150.27;;;87.30;;
22606;SDS011;11470;20.968;105.834;2023-03-01T16:06:03;164.18;;;97.53;;
22606;SDS011;11470;20.968;105.834;2023-03-01T16:11:13;158.20;;;89.43;;
22606;SDS011;11470;20.968;105.834;2023-03-01T16:16:23;181.43;;;102.53;;
22606;SDS011;11470;20.968;105.834;2023-03-01T16:21:31;150.90;;;87.45;;
22606;SDS011;11470;20.968;105.834;2023-03-01T16:26:38;140.85;;;84.18;;
22606;SDS011;11470;20.968;105.834;2023-03-01T16:31:44;145.32;;;82.68;;
22606;SDS011;11470;20.968;105.834;2023-03-01T16:36:51;120.38;;;69.95;;
22606;SDS011;11470;20.968;105.834;2023-03-01T16:41:59;130.80;;;75.15;;
22606;SDS011;11470;20.968;105.834;2023-03-01T16:47:06;120.72;;;68.25;;
22606;SDS011;11470;20.968;105.834;2023-03-01T16:52:12;102.35;;;57.90;;
22606;SDS011;11470;20.968;105.834;2023-03-01T16:57:18;114.47;;;66.15;;
22606;SDS011;11470;20.968;105.834;2023-03-01T17:07:31;124.80;;;75.00;;
22606;SDS011;11470;20.968;105.834;2023-03-01T17:12:38;120.32;;;66.05;;
22606;SDS011;11470;20.968;105.834;2023-03-01T17:17:44;92.75;;;45.47;;
22606;SDS011;11470;20.968;105.834;2023-03-01T17:22:55;112.20;;;64.15;;
22606;SDS011;11470;20.968;105.834;2023-03-01T17:28:01;121.95;;;63.20;;
22606;SDS011;11470;20.968;105.834;2023-03-01T17:33:08;119.70;;;65.53;;
22606;SDS011;11470;20.968;105.834;2023-03-01T17:43:19;81.65;;;43.38;;
22606;SDS011;11470;20.968;105.834;2023-03-01T17:48:25;101.15;;;51.42;;
22606;SDS011;11470;20.968;105.834;2023-03-01T17:53:33;103.35;;;50.38;;
22606;SDS011;11470;20.968;105.834;2023-03-01T17:58:39;102.90;;;56.40;;
22606;SDS011;11470;20.968;105.834;2023-03-01T18:03:45;72.95;;;34.35;;
22606;SDS011;11470;20.968;105.834;2023-03-01T18:08:52;104.57;;;52.05;;
22606;SDS011;11470;20.968;105.834;2023-03-01T18:13:58;77.72;;;38.30;;
22606;SDS011;11470;20.968;105.834;2023-03-01T18:19:05;132.93;;;72.25;;
22606;SDS011;11470;20.968;105.834;2023-03-01T18:24:11;120.05;;;66.85;;
22606;SDS011;11470;20.968;105.834;2023-03-01T18:34:24;134.48;;;73.45;;
22606;SDS011;11470;20.968;105.834;2023-03-01T18:44:35;95.82;;;49.15;;
22606;SDS011;11470;20.968;105.834;2023-03-01T18:49:41;114.20;;;61.63;;
22606;SDS011;11470;20.968;105.834;2023-03-01T18:54:48;87.03;;;43.63;;
22606;SDS011;11470;20.968;105.834;2023-03-01T18:59:54;70.18;;;33.13;;
22606;SDS011;11470;20.968;105.834;2023-03-01T19:05:01;107.07;;;60.30;;
22606;SDS011;11470;20.968;105.834;2023-03-01T19:15:13;98.03;;;47.40;;
22606;SDS011;11470;20.968;105.834;2023-03-01T19:20:19;101.65;;;50.08;;
22606;SDS011;11470;20.968;105.834;2023-03-01T19:30:31;108.93;;;62.30;;
22606;SDS011;11470;20.968;105.834;2023-03-01T19:35:38;186.18;;;96.32;;
22606;SDS011;11470;20.968;105.834;2023-03-01T19:40:44;106.57;;;55.38;;
22606;SDS011;11470;20.968;105.834;2023-03-01T19:45:51;158.63;;;83.78;;
22606;SDS011;11470;20.968;105.834;2023-03-01T19:50:58;122.68;;;67.28;;
22606;SDS011;11470;20.968;105.834;2023-03-01T19:56:04;158.45;;;82.20;;
22606;SDS011;11470;20.968;105.834;2023-03-01T20:01:20;123.03;;;70.22;;
22606;SDS011;11470;20.968;105.834;2023-03-01T20:06:27;144.30;;;75.60;;
22606;SDS011;11470;20.968;105.834;2023-03-01T20:11:34;158.82;;;81.70;;
22606;SDS011;11470;20.968;105.834;2023-03-01T20:16:41;150.43;;;77.88;;
22606;SDS011;11470;20.968;105.834;2023-03-01T20:26:53;116.05;;;57.15;;
22606;SDS011;11470;20.968;105.834;2023-03-01T20:31:59;136.75;;;71.30;;
22606;SDS011;11470;20.968;105.834;2023-03-01T20:37:06;161.20;;;83.50;;
22606;SDS011;11470;20.968;105.834;2023-03-01T20:42:12;146.73;;;79.45;;
22606;SDS011;11470;20.968;105.834;2023-03-01T20:47:19;128.15;;;72.63;;
22606;SDS011;11470;20.968;105.834;2023-03-01T20:52:26;141.43;;;72.57;;
22606;SDS011;11470;20.968;105.834;2023-03-01T20:57:44;109.28;;;64.68;;
22606;SDS011;11470;20.968;105.834;2023-03-01T21:02:50;117.18;;;62.30;;
22606;SDS011;11470;20.968;105.834;2023-03-01T21:07:57;148.10;;;79.68;;
22606;SDS011;11470;20.968;105.834;2023-03-01T21:13:06;130.40;;;70.40;;
22606;SDS011;11470;20.968;105.834;2023-03-01T21:18:13;131.18;;;72.32;;
22606;SDS011;11470;20.968;105.834;2023-03-01T21:23:21;106.05;;;55.42;;
22606;SDS011;11470;20.968;105.834;2023-03-01T21:33:36;142.50;;;71.25;;
22606;SDS011;11470;20.968;105.834;2023-03-01T21:38:44;153.38;;;79.45;;
22606;SDS011;11470;20.968;105.834;2023-03-01T21:43:53;163.02;;;86.13;;
22606;SDS011;11470;20.968;105.834;2023-03-01T21:49:06;131.00;;;69.15;;
22606;SDS011;11470;20.968;105.834;2023-03-01T21:54:16;121.72;;;66.90;;
22606;SDS011;11470;20.968;105.834;2023-03-01T21:59:23;131.57;;;71.95;;
22606;SDS011;11470;20.968;105.834;2023-03-01T22:04:30;122.28;;;66.70;;
22606;SDS011;11470;20.968;105.834;2023-03-01T22:09:36;115.00;;;55.45;;
22606;SDS011;11470;20.968;105.834;2023-03-01T22:14:44;76.43;;;35.20;;
22606;SDS011;11470;20.968;105.834;2023-03-01T22:19:50;92.07;;;46.38;;
22606;SDS011;11470;20.968;105.834;2023-03-01T22:24:56;73.32;;;31.67;;
22606;SDS011;11470;20.968;105.834;2023-03-01T22:30:06;153.13;;;76.03;;
22606;SDS011;11470;20.968;105.834;2023-03-01T22:35:14;103.18;;;48.05;;
22606;SDS011;11470;20.968;105.834;2023-03-01T22:45:29;100.05;;;50.65;;
22606;SDS011;11470;20.968;105.834;2023-03-01T22:50:35;80.47;;;39.47;;
22606;SDS011;11470;20.968;105.834;2023-03-01T22:55:43;112.70;;;47.17;;
22606;SDS011;11470;20.968;105.834;2023-03-01T23:00:49;106.68;;;51.70;;
22606;SDS011;11470;20.968;105.834;2023-03-01T23:05:56;82.82;;;37.92;;
22606;SDS011;11470;20.968;105.834;2023-03-01T23:11:03;103.85;;;46.50;;
22606;SDS011;11470;20.968;105.834;2023-03-01T23:16:14;117.65;;;55.40;;
22606;SDS011;11470;20.968;105.834;2023-03-01T23:21:20;123.57;;;59.20;;
22606;SDS011;11470;20.968;105.834;2023-03-01T23:26:27;81.47;;;36.28;;
22606;SDS011;11470;20.968;105.834;2023-03-01T23:31:35;120.30;;;56.60;;
22606;SDS011;11470;20.968;105.834;2023-03-01T23:36:44;90.68;;;41.95;;
22606;SDS011;11470;20.968;105.834;2023-03-01T23:41:50;119.60;;;60.92;;
22606;SDS011;11470;20.968;105.834;2023-03-01T23:46:58;133.00;;;64.25;;
22606;SDS011;11470;20.968;105.834;2023-03-01T23:52:04;87.13;;;39.63;;
22606;SDS011;11470;20.968;105.834;2023-03-01T23:57:11;81.28;;;38.03;;
